Stk-1004 — UBEM — position and weather

sailwx.info

Track history (hours):
 
Tides and Currents Weather Stations Pressure Air Temp Water Temp Dewpoint Dewpoint Depression Visibility Wind Speed Wind Dir Waves Ship Positions

Stk-1004

Last reported at 2016-Aug-29 03:31 UTC. Time now 2016-Aug-31 00:36 UTC.
Position N 59°59' E 029°43'.

Length 82 m; draft 3.5 m.

Type: Cargo ship. MMSI: 273439130.

Date/timePositionNaut miles runAvg speedWind from/ knotsBaromVisibWave heightAir tempDewpointWater temp
2016-Aug-29 03:31N 59°59' E 029°43'5 5.3
2016-Aug-29 02:33N 59°57' E 029°52'8 7.6
2016-Aug-29 01:33N 59°54' E 030°06'6 5.8
2016-Aug-29 00:33N 59°56' E 030°17'4 3.6
2016-Aug-28 23:33N 59°55' E 030°24'0 0.0
2016-Aug-27 14:33N 59°55' E 030°24'0 0.0
2016-Aug-27 13:33N 59°55' E 030°24'0 0.0
2016-Aug-27 12:28N 59°55' E 030°24'0 0.0
2016-Aug-27 11:31N 59°55' E 030°24'0 0.0
2016-Aug-27 10:28N 59°55' E 030°24'0 0.0
2016-Aug-27 09:30N 59°55' E 030°24'0 0.0
2016-Aug-27 08:32N 59°55' E 030°24'0 0.0
2016-Aug-27 07:22N 59°55' E 030°24'0 0.0
2016-Aug-27 06:32N 59°55' E 030°24'0 0.0
2016-Aug-27 04:33N 59°55' E 030°24'2 2.1
2016-Aug-27 03:28N 59°54' E 030°27'  
2016-Aug-22 00:31N 59°51' E 030°30'5 5.1
2016-Aug-21 23:33N 59°55' E 030°24'4 3.6
2016-Aug-21 22:33N 59°56' E 030°18'0 0.3
2016-Aug-21 21:32N 59°56' E 030°17'0 0.0
2016-Aug-21 20:33N 59°56' E 030°17'0 0.0
2016-Aug-21 19:33N 59°56' E 030°17'0 0.0
2016-Aug-21 18:33N 59°56' E 030°17'1 0.8
2016-Aug-21 17:33N 59°55' E 030°16'7 6.9
2016-Aug-21 16:33N 59°56' E 030°03'8 7.8
2016-Aug-21 15:33N 59°58' E 029°47'  
2016-Aug-19 09:22N 60°18' E 028°26'  
Track history (hours):
 
Tides and Currents Weather Stations Pressure Air Temp Water Temp Dewpoint Dewpoint Depression Visibility Wind Speed Wind Dir Waves Ship Positions

Stk-1004

Last reported at 2016-Aug-29 03:31 UTC. Time now 2016-Aug-31 00:36 UTC.
Position N 59°59' E 029°43'.

Length 82 m; draft 3.5 m.

Type: Cargo ship. MMSI: 273439130.

Date/timePositionNaut miles runAvg speedWind from/ knotsBaromVisibWave heightAir tempDewpointWater temp
2016-Aug-29 03:31N 59°59' E 029°43'5 5.3
2016-Aug-29 02:33N 59°57' E 029°52'8 7.6
2016-Aug-29 01:33N 59°54' E 030°06'6 5.8
2016-Aug-29 00:33N 59°56' E 030°17'4 3.6
2016-Aug-28 23:33N 59°55' E 030°24'0 0.0
2016-Aug-27 14:33N 59°55' E 030°24'0 0.0
2016-Aug-27 13:33N 59°55' E 030°24'0 0.0
2016-Aug-27 12:28N 59°55' E 030°24'0 0.0
2016-Aug-27 11:31N 59°55' E 030°24'0 0.0
2016-Aug-27 10:28N 59°55' E 030°24'0 0.0
2016-Aug-27 09:30N 59°55' E 030°24'0 0.0
2016-Aug-27 08:32N 59°55' E 030°24'0 0.0
2016-Aug-27 07:22N 59°55' E 030°24'0 0.0
2016-Aug-27 06:32N 59°55' E 030°24'0 0.0
2016-Aug-27 04:33N 59°55' E 030°24'2 2.1
2016-Aug-27 03:28N 59°54' E 030°27'  
2016-Aug-22 00:31N 59°51' E 030°30'5 5.1
2016-Aug-21 23:33N 59°55' E 030°24'4 3.6
2016-Aug-21 22:33N 59°56' E 030°18'0 0.3
2016-Aug-21 21:32N 59°56' E 030°17'0 0.0
2016-Aug-21 20:33N 59°56' E 030°17'0 0.0
2016-Aug-21 19:33N 59°56' E 030°17'0 0.0
2016-Aug-21 18:33N 59°56' E 030°17'1 0.8
2016-Aug-21 17:33N 59°55' E 030°16'7 6.9
2016-Aug-21 16:33N 59°56' E 030°03'8 7.8
2016-Aug-21 15:33N 59°58' E 029°47'  
2016-Aug-19 09:22N 60°18' E 028°26'  

Dump ship's entire track history